Time;durP1;ratioP1;P1;durP2;ratioP2;P2;SDS_P1;SDS_P2;PMS_P1;PMS_P2;Temp;Humidity;BMP_temperature;BMP_pressure;BME280_temperature;BME280_humidity;BME280_pressure;Samples;Min_cycle;Max_cycle;Signal;HPM_P1;HPM_P2
2021/06/02 00:01:11;;;;;;;7.93;2.85;;;;;;;16.33;55.60;101156.22;146709;699;46021;-67
2021/06/02 00:03:43;;;;;;;6.15;2.80;;;;;;;16.41;55.78;101151.44;146707;624;46016;-67
2021/06/02 00:06:14;;;;;;;6.62;3.08;;;;;;;16.38;55.41;101144.50;146710;634;46013;-67
2021/06/02 00:08:45;;;;;;;5.97;3.50;;;;;;;16.42;55.31;101150.53;146708;569;47012;-66
2021/06/02 00:11:17;;;;;;;5.65;2.97;;;;;;;16.46;55.58;101159.19;146712;652;46020;-67
2021/06/02 00:13:47;;;;;;;6.90;2.97;;;;;;;16.48;55.04;101155.53;146708;591;46016;-68
2021/06/02 00:16:18;;;;;;;6.10;2.85;;;;;;;16.50;54.65;101163.44;146710;643;46020;-67
2021/06/02 00:18:49;;;;;;;6.03;3.10;;;;;;;16.51;54.58;101166.00;146711;732;46012;-67
2021/06/02 00:21:19;;;;;;;5.45;2.55;;;;;;;16.57;54.51;101168.38;146711;699;47010;-67
2021/06/02 00:23:50;;;;;;;7.25;2.78;;;;;;;16.51;55.45;101165.13;146711;648;46906;-68
2021/06/02 00:26:22;;;;;;;5.70;2.92;;;;;;;16.49;55.02;101167.84;146715;589;46010;-67
2021/06/02 00:28:53;;;;;;;11.23;2.80;;;;;;;16.50;55.14;101158.97;146709;703;46014;-68
2021/06/02 00:31:24;;;;;;;8.25;3.20;;;;;;;16.42;54.92;101154.03;146710;658;46010;-67
2021/06/02 00:33:56;;;;;;;6.82;3.00;;;;;;;16.43;55.72;101168.16;146710;627;46904;-66
2021/06/02 00:36:27;;;;;;;6.82;2.78;;;;;;;16.41;56.08;101173.50;146711;583;47010;-66
2021/06/02 00:39:00;;;;;;;5.85;2.80;;;;;;;16.31;55.83;101174.84;146710;634;46034;-68
2021/06/02 00:41:30;;;;;;;6.57;3.00;;;;;;;16.23;56.25;101176.97;146712;634;46020;-68
2021/06/02 00:44:05;;;;;;;4.12;2.87;;;;;;;16.15;56.44;101177.31;146710;663;46014;-67
2021/06/02 00:46:37;;;;;;;6.43;3.12;;;;;;;16.15;56.67;101177.31;146712;622;46021;-67
2021/06/02 00:49:24;;;;;;;8.18;3.15;;;;;;;16.20;56.69;101183.28;146708;608;46014;-65
2021/06/02 00:52:07;;;;;;;5.30;2.90;;;;;;;16.13;56.50;101176.53;146713;600;47010;-66
2021/06/02 00:54:38;;;;;;;5.85;3.33;;;;;;;16.12;56.36;101180.09;146711;583;45906;-69
2021/06/02 00:57:29;;;;;;;6.18;3.20;;;;;;;16.08;56.67;101181.16;146712;664;47010;-66
2021/06/02 01:00:10;;;;;;;8.10;3.40;;;;;;;16.14;56.58;101182.69;146713;617;45020;-67
2021/06/02 01:02:47;;;;;;;8.38;3.03;;;;;;;16.02;56.82;101184.94;146711;613;46010;-67
2021/06/02 01:05:22;;;;;;;5.95;2.85;;;;;;;15.99;56.11;101184.22;146707;577;46016;-65
2021/06/02 01:07:56;;;;;;;7.85;3.33;;;;;;;15.94;56.70;101181.78;146711;573;46011;-63
2021/06/02 01:10:26;;;;;;;;;;;;;;;15.85;56.79;101174.22;146712;980;46016;-63
2021/06/02 01:12:59;;;;;;;8.10;3.15;;;;;;;15.79;56.85;101177.97;146719;638;46020;-64
2021/06/02 01:15:29;;;;;;;8.85;3.22;;;;;;;15.73;56.91;101180.84;146708;566;47020;-64
2021/06/02 01:18:00;;;;;;;5.32;3.00;;;;;;;15.69;57.55;101179.25;146714;575;46009;-66
2021/06/02 01:20:33;;;;;;;6.62;3.00;;;;;;;15.70;57.00;101189.78;146709;629;47010;-64
2021/06/02 01:23:05;;;;;;;5.30;3.22;;;;;;;15.76;57.70;101183.38;146712;583;46024;-66
2021/06/02 01:25:38;;;;;;;5.80;3.37;;;;;;;15.73;57.08;101184.38;146709;599;47010;-66
2021/06/02 01:28:08;;;;;;;6.35;3.17;;;;;;;15.71;57.62;101194.16;146712;651;45020;-66
2021/06/02 01:30:39;;;;;;;7.95;3.33;;;;;;;15.73;57.75;101199.37;146710;606;46010;-66
2021/06/02 01:34:04;;;;;;;5.57;2.85;;;;;;;15.71;57.81;101203.91;146710;576;46020;-66
2021/06/02 01:37:36;;;;;;;6.22;3.20;;;;;;;15.74;57.45;101179.94;146710;565;46010;-66
2021/06/02 01:41:13;;;;;;;4.93;3.10;;;;;;;15.74;57.27;101196.66;146714;565;45021;-66
2021/06/02 01:44:49;;;;;;;6.00;3.10;;;;;;;15.74;57.18;101193.16;146709;579;47010;-66
2021/06/02 01:48:11;;;;;;;9.15;3.58;;;;;;;15.72;57.19;101197.69;146710;564;46021;-65
2021/06/02 01:51:25;;;;;;;7.22;3.37;;;;;;;15.72;57.62;101195.03;146710;608;47010;-65
2021/06/02 01:54:57;;;;;;;6.05;3.40;;;;;;;15.66;57.31;101204.06;146707;579;46008;-66
2021/06/02 01:58:43;;;;;;;8.40;3.45;;;;;;;15.67;57.48;101211.09;146707;580;46016;-66
2021/06/02 02:02:19;;;;;;;8.05;3.70;;;;;;;15.64;56.96;101205.09;146709;656;46009;-66
2021/06/02 02:06:01;;;;;;;6.25;3.50;;;;;;;15.59;57.68;101215.84;146709;563;46016;-67
2021/06/02 02:09:07;;;;;;;6.57;3.30;;;;;;;15.60;56.87;101222.88;146715;588;45021;-66
2021/06/02 02:11:43;;;;;;;8.23;3.80;;;;;;;15.61;57.24;101216.66;146712;569;46010;-67
2021/06/02 02:14:52;;;;;;;7.18;3.10;;;;;;;15.55;57.40;101222.19;146714;645;46023;-67
2021/06/02 02:18:22;;;;;;;6.55;3.95;;;;;;;15.59;56.95;101218.47;146708;603;46019;-66
2021/06/02 02:21:44;;;;;;;6.45;3.58;;;;;;;15.46;56.89;101211.97;146713;573;47008;-64
2021/06/02 02:24:29;;;;;;;5.30;3.35;;;;;;;15.53;57.34;101224.03;146709;571;47011;-63
2021/06/02 02:27:48;;;;;;;6.87;3.70;;;;;;;15.50;56.95;101230.31;146711;591;46020;-66
2021/06/02 02:31:34;;;;;;;6.95;3.75;;;;;;;15.51;57.62;101231.16;146709;634;46016;-67
2021/06/02 02:34:43;;;;;;;9.17;3.73;;;;;;;15.50;57.10;101224.16;146710;685;45020;-67
2021/06/02 02:38:00;;;;;;;9.15;4.35;;;;;;;15.47;57.20;101222.47;146707;609;46010;-67
2021/06/02 02:41:42;;;;;;;10.15;4.78;;;;;;;15.40;57.57;101213.06;146715;581;46008;-66
2021/06/02 02:45:07;;;;;;;7.82;4.80;;;;;;;15.47;57.04;101216.34;146708;587;47010;-66
2021/06/02 02:48:14;;;;;;;9.65;4.70;;;;;;;15.50;56.71;101224.16;146714;571;46008;-65
2021/06/02 02:51:28;;;;;;;10.88;5.70;;;;;;;15.47;57.18;101224.28;146711;587;46018;-66
2021/06/02 02:54:22;;;;;;;10.17;5.47;;;;;;;15.39;56.71;101228.09;146712;607;46008;-65
2021/06/02 02:57:57;;;;;;;10.87;5.27;;;;;;;15.32;57.38;101236.34;146710;587;46010;-66
2021/06/02 03:01:04;;;;;;;10.32;4.70;;;;;;;15.29;57.22;101242.59;146712;564;46020;-65
2021/06/02 03:03:49;;;;;;;11.38;5.53;;;;;;;15.26;57.72;101242.72;146707;591;46016;-65
2021/06/02 03:06:46;;;;;;;10.38;4.97;;;;;;;15.33;57.37;101243.34;146713;609;46008;-65
2021/06/02 03:10:00;;;;;;;13.95;5.25;;;;;;;15.23;56.77;101238.41;146702;571;48010;-66
2021/06/02 03:13:04;;;;;;;11.85;5.18;;;;;;;15.34;56.76;101239.78;146710;594;46008;-67
2021/06/02 03:15:49;;;;;;;9.63;4.78;;;;;;;15.31;57.02;101243.41;146703;564;47017;-64
2021/06/02 03:19:18;;;;;;;12.02;5.53;;;;;;;15.27;57.88;101233.00;146710;590;46008;-66
2021/06/02 03:22:14;;;;;;;12.32;5.85;;;;;;;15.35;57.90;101242.38;146707;584;47010;-67
2021/06/02 03:25:21;;;;;;;17.90;7.55;;;;;;;15.37;58.29;101248.47;146709;589;46021;-66
2021/06/02 03:28:54;;;;;;;19.10;7.62;;;;;;;15.49;57.51;101263.00;146706;583;46014;-68
2021/06/02 03:32:12;;;;;;;14.07;6.87;;;;;;;15.62;57.61;101262.50;146708;633;46008;-65
2021/06/02 03:35:37;;;;;;;22.48;8.95;;;;;;;15.70;57.58;101258.59;146705;569;46010;-67
2021/06/02 03:39:12;;;;;;;21.80;9.80;;;;;;;15.78;57.50;101260.09;146710;623;46008;-67
2021/06/02 03:42:14;;;;;;;25.70;10.30;;;;;;;15.88;57.38;101267.63;146707;645;46030;-67
2021/06/02 03:46:03;;;;;;;23.38;9.38;;;;;;;15.92;56.86;101273.66;146713;564;46008;-66
2021/06/02 03:48:53;;;;;;;18.67;9.68;;;;;;;15.93;57.20;101277.19;146710;598;46010;-66
2021/06/02 03:52:09;;;;;;;18.45;8.73;;;;;;;15.93;57.35;101274.53;146710;579;46020;-67
2021/06/02 03:55:32;;;;;;;13.30;7.30;;;;;;;15.70;57.27;101263.91;146708;640;46010;-65
2021/06/02 03:58:52;;;;;;;15.02;7.70;;;;;;;15.76;57.71;101283.12;146709;642;46020;-66
2021/06/02 04:02:18;;;;;;;13.05;7.57;;;;;;;15.78;57.32;101279.47;146703;626;46016;-67
2021/06/02 04:05:47;;;;;;;13.23;7.45;;;;;;;15.71;57.93;101275.38;146713;614;46008;-67
2021/06/02 04:08:58;;;;;;;12.93;6.37;;;;;;;15.84;57.32;101289.88;146703;588;46017;-68
2021/06/02 04:12:13;;;;;;;10.43;5.40;;;;;;;16.00;56.84;101291.88;146708;666;46020;-66
2021/06/02 04:14:59;;;;;;;9.15;4.78;;;;;;;16.12;56.44;101306.41;146707;646;46011;-66
2021/06/02 04:17:33;;;;;;;9.18;4.60;;;;;;;16.30;56.61;101302.97;146712;608;46008;-66
2021/06/02 04:20:06;;;;;;;9.43;4.12;;;;;;;16.35;54.88;101306.28;146707;649;46016;-66
2021/06/02 04:22:41;;;;;;;7.67;4.43;;;;;;;16.47;56.23;101301.37;146709;569;46021;-66
2021/06/02 04:25:18;;;;;;;7.55;3.90;;;;;;;16.51;54.86;101306.50;146705;569;46018;-65
2021/06/02 04:27:49;;;;;;;7.78;3.78;;;;;;;16.71;55.47;101307.41;146711;575;46008;-65
2021/06/02 04:30:21;;;;;;;8.82;4.90;;;;;;;16.80;55.20;101309.66;146706;612;46017;-65
2021/06/02 04:32:59;;;;;;;18.65;9.05;;;;;;;16.97;55.42;101310.72;146710;710;46008;-67
2021/06/02 04:35:32;;;;;;;18.67;9.30;;;;;;;17.02;56.27;101314.03;146709;692;46016;-64
2021/06/02 04:38:03;;;;;;;19.30;9.52;;;;;;;17.11;56.36;101302.97;146710;636;46008;-66
2021/06/02 04:40:39;;;;;;;20.75;9.82;;;;;;;17.10;56.54;101309.22;146708;663;46010;-65
2021/06/02 04:43:09;;;;;;;21.98;9.40;;;;;;;17.16;55.86;101326.66;146712;615;46008;-65
2021/06/02 04:46:06;;;;;;;25.15;10.23;;;;;;;17.20;56.23;101323.78;146707;728;46010;-65
2021/06/02 04:48:37;;;;;;;24.23;10.20;;;;;;;17.34;56.36;101336.41;146711;569;46008;-66
2021/06/02 04:52:13;;;;;;;22.95;9.98;;;;;;;17.52;56.42;101324.09;146710;710;46010;-66
2021/06/02 04:55:48;;;;;;;26.27;9.77;;;;;;;17.66;56.18;101323.41;146710;569;46008;-67
2021/06/02 04:59:13;;;;;;;21.67;9.45;;;;;;;17.69;56.11;101325.91;146705;566;46016;-67
2021/06/02 05:02:52;;;;;;;21.20;9.80;;;;;;;17.70;56.40;101322.34;146712;699;46008;-66
2021/06/02 05:06:42;;;;;;;16.70;8.68;;;;;;;17.90;55.79;101331.97;146708;579;46016;-67
2021/06/02 05:10:28;;;;;;;13.18;6.87;;;;;;;18.08;55.40;101338.22;146709;569;46021;-66
2021/06/02 05:13:34;;;;;;;;;;;;;;;18.32;55.14;101337.94;146712;963;46906;-67
2021/06/02 05:16:56;;;;;;;12.95;7.10;;;;;;;18.43;53.27;101330.25;146718;582;46010;-65
2021/06/02 05:24:36;;;;;;;15.10;7.07;;;;;;;18.64;53.19;101335.41;146708;675;46021;-66
2021/06/02 05:28:09;;;;;;;11.98;6.32;;;;;;;18.89;53.72;101337.69;146705;644;46016;-67
2021/06/02 05:31:45;;;;;;;12.77;5.55;;;;;;;19.10;52.68;101342.78;146714;564;45021;-67
2021/06/02 05:35:47;;;;;;;11.05;6.18;;;;;;;19.16;52.92;101346.91;146708;580;46012;-66
2021/06/02 05:39:16;;;;;;;7.95;4.70;;;;;;;19.28;51.64;101355.09;146713;591;46010;-66
2021/06/02 05:42:23;;;;;;;10.68;5.03;;;;;;;19.32;50.66;101361.12;146706;611;46016;-67
2021/06/02 05:45:55;;;;;;;15.60;5.65;;;;;;;19.38;50.92;101363.47;146705;587;46010;-67
2021/06/02 05:49:24;;;;;;;14.25;5.00;;;;;;;19.59;51.01;101361.41;146705;594;46018;-68
2021/06/02 05:52:36;;;;;;;13.30;5.22;;;;;;;19.72;50.47;101369.53;146710;564;46012;-67
2021/06/02 05:56:10;;;;;;;11.23;5.05;;;;;;;19.82;50.95;101366.41;146707;563;46016;-68
2021/06/02 05:59:45;;;;;;;7.95;4.12;;;;;;;19.84;49.66;101360.03;146710;611;46010;-69
2021/06/02 06:03:03;;;;;;;6.70;2.70;;;;;;;20.06;48.46;101370.31;177583;61;223085;-68
2021/06/02 06:06:54;;;;;;;3.62;1.70;;;;;;;20.28;45.99;101374.41;146710;590;45021;-68
2021/06/02 06:10:33;;;;;;;2.03;1.30;;;;;;;20.62;44.41;101373.28;146706;570;46014;-69
2021/06/02 06:13:50;;;;;;;3.00;1.58;;;;;;;20.91;45.73;101383.16;146708;680;46008;-69
2021/06/02 06:17:25;;;;;;;7.82;3.10;;;;;;;21.26;45.99;101388.16;146705;579;46016;-66
2021/06/02 06:21:36;;;;;;;9.88;4.00;;;;;;;21.35;45.52;101374.22;146707;699;47008;-66
2021/06/02 06:24:12;;;;;;;11.30;4.12;;;;;;;21.66;45.76;101380.31;146706;594;46016;-66
2021/06/02 06:27:04;;;;;;;6.15;3.47;;;;;;;21.70;43.57;101380.97;146710;623;46008;-67
2021/06/02 06:30:04;;;;;;;9.18;3.80;;;;;;;21.57;43.74;101387.13;146701;596;47010;-67
2021/06/02 06:32:37;;;;;;;5.47;2.40;;;;;;;21.69;44.92;101381.94;146708;571;46008;-65
2021/06/02 06:35:11;;;;;;;2.50;1.60;;;;;;;21.77;44.82;101393.84;146706;603;46018;-66
2021/06/02 06:37:47;;;;;;;3.70;1.65;;;;;;;21.89;44.07;101383.31;146707;582;46021;-66
2021/06/02 06:40:25;;;;;;;4.07;2.20;;;;;;;21.90;43.93;101390.38;146706;599;46014;-64
2021/06/02 06:42:57;;;;;;;3.22;1.85;;;;;;;21.96;43.46;101381.94;146712;625;46008;-67
2021/06/02 06:45:38;;;;;;;6.83;1.90;;;;;;;22.03;42.61;101388.59;146701;667;46903;-66
2021/06/02 06:48:21;;;;;;;6.35;1.90;;;;;;;22.00;42.69;101382.63;146704;600;46018;-66
2021/06/02 06:50:57;;;;;;;4.55;2.00;;;;;;;21.94;42.02;101389.22;146706;606;46024;-66
2021/06/02 06:53:28;;;;;;;4.10;1.67;;;;;;;22.03;42.64;101388.59;146704;617;46020;-66
2021/06/02 06:56:00;;;;;;;8.82;1.77;;;;;;;21.95;42.74;101377.56;146707;626;46014;-66
2021/06/02 06:58:31;;;;;;;2.75;1.50;;;;;;;22.12;42.53;101390.66;146710;571;47008;-66
2021/06/02 07:01:02;;;;;;;5.82;2.12;;;;;;;22.17;42.71;101394.84;146705;606;46016;-66
2021/06/02 07:03:34;;;;;;;5.45;1.98;;;;;;;22.29;42.61;101388.69;146708;576;46020;-66
2021/06/02 07:06:05;;;;;;;4.18;2.10;;;;;;;22.37;42.04;101399.75;146705;613;47010;-65
2021/06/02 07:08:37;;;;;;;4.55;1.95;;;;;;;22.46;41.87;101403.66;146706;598;46020;-65
2021/06/02 07:11:08;;;;;;;5.25;2.00;;;;;;;22.48;41.75;101402.59;146705;627;47010;-66
2021/06/02 07:13:41;;;;;;;3.83;2.10;;;;;;;22.52;41.76;101405.91;146705;604;46008;-66
2021/06/02 07:16:14;;;;;;;4.15;1.95;;;;;;;22.65;41.64;101400.59;146706;586;46016;-66
2021/06/02 07:18:46;;;;;;;2.70;1.90;;;;;;;22.77;40.72;101406.91;146710;641;46008;-66
2021/06/02 07:21:20;;;;;;;4.25;2.05;;;;;;;22.69;39.87;101412.81;146705;564;46015;-66
2021/06/02 07:23:51;;;;;;;4.93;2.00;;;;;;;22.66;40.88;101399.59;146707;569;46020;-67
2021/06/02 07:26:22;;;;;;;2.85;1.77;;;;;;;22.82;40.17;101408.28;146705;557;47010;-66
2021/06/02 07:28:53;;;;;;;4.50;1.95;;;;;;;22.87;39.52;101404.44;146709;647;46021;-70
2021/06/02 07:31:24;;;;;;;4.87;1.90;;;;;;;22.93;39.82;101404.03;146708;620;46010;-62
2021/06/02 07:33:55;;;;;;;5.28;2.20;;;;;;;22.99;39.78;101409.81;146709;617;47008;-63
2021/06/02 07:36:25;;;;;;;3.20;1.87;;;;;;;23.10;40.25;101411.75;146707;570;46011;-67
2021/06/02 07:38:56;;;;;;;4.30;2.05;;;;;;;23.30;39.95;101413.03;146706;569;46020;-66
2021/06/02 07:41:27;;;;;;;6.87;1.83;;;;;;;23.44;39.33;101414.75;146704;605;47902;-63
2021/06/02 07:44:00;;;;;;;2.28;1.60;;;;;;;23.54;38.80;101414.06;146712;564;46008;-66
2021/06/02 07:46:34;;;;;;;5.78;2.67;;;;;;;23.53;37.08;101413.22;146705;657;47902;-66
2021/06/02 07:49:07;;;;;;;6.95;4.32;;;;;;;23.63;38.41;101419.66;146706;583;47008;-66
2021/06/02 07:51:37;;;;;;;5.72;2.92;;;;;;;23.71;38.16;101420.91;146705;618;47010;-66
2021/06/02 07:54:08;;;;;;;3.50;2.30;;;;;;;23.95;38.16;101421.00;146706;583;46020;-66
2021/06/02 07:56:45;;;;;;;8.13;3.15;;;;;;;24.01;37.79;101417.00;146703;588;46016;-66
2021/06/02 07:59:15;;;;;;;6.18;4.30;;;;;;;24.06;36.73;101413.00;146706;629;46008;-66
2021/06/02 08:01:47;;;;;;;4.90;2.47;;;;;;;24.28;36.99;101414.94;146704;690;46010;-66
2021/06/02 08:04:17;;;;;;;5.45;2.28;;;;;;;24.34;36.71;101413.59;146705;569;46020;-66
2021/06/02 08:06:48;;;;;;;4.00;2.17;;;;;;;24.41;36.42;101408.62;146706;588;46014;-66
2021/06/02 08:09:19;;;;;;;4.68;1.90;;;;;;;24.48;36.07;101409.87;146707;564;46020;-66
2021/06/02 08:11:51;;;;;;;4.60;1.80;;;;;;;24.44;35.36;101416.44;146705;573;46016;-65
2021/06/02 08:14:21;;;;;;;2.58;1.50;;;;;;;24.59;35.51;101417.09;146708;569;46008;-66
2021/06/02 08:16:52;;;;;;;3.10;1.40;;;;;;;24.72;34.60;101423.28;146704;583;47018;-66
2021/06/02 08:19:23;;;;;;;4.82;1.40;;;;;;;24.79;33.93;101423.66;146708;577;46020;-65
2021/06/02 08:21:54;;;;;;;2.87;1.40;;;;;;;24.83;34.00;101417.94;146708;569;47011;-66
2021/06/02 08:24:25;;;;;;;3.33;1.35;;;;;;;24.84;33.70;101427.72;146707;572;46020;-66
2021/06/02 08:26:55;;;;;;;3.22;1.42;;;;;;;24.91;34.12;101422.72;146704;577;48011;-66
2021/06/02 08:29:25;;;;;;;2.10;1.30;;;;;;;24.95;33.28;101424.19;146708;581;46020;-66
2021/06/02 08:31:56;;;;;;;2.45;1.35;;;;;;;25.00;31.67;101421.13;146708;599;46014;-66
2021/06/02 08:34:27;;;;;;;2.42;1.50;;;;;;;25.02;32.76;101432.63;146710;565;46008;-66
2021/06/02 08:36:57;;;;;;;2.53;1.55;;;;;;;24.93;32.45;101427.97;146700;576;47011;-65
2021/06/02 08:39:29;;;;;;;2.47;1.48;;;;;;;25.06;31.66;101428.72;146707;628;46008;-66
2021/06/02 08:41:59;;;;;;;2.22;1.40;;;;;;;24.97;32.80;101429.44;146706;586;47010;-66
2021/06/02 08:44:30;;;;;;;4.43;1.40;;;;;;;25.05;32.84;101424.31;146707;631;46020;-66
2021/06/02 08:47:03;;;;;;;1.75;1.15;;;;;;;25.14;32.39;101428.12;146704;595;46016;-66
2021/06/02 08:49:34;;;;;;;2.85;1.08;;;;;;;25.37;31.46;101426.34;146713;566;45050;-65
2021/06/02 08:52:07;;;;;;;3.20;1.10;;;;;;;25.34;30.93;101418.50;146706;564;46014;-66
2021/06/02 08:54:38;;;;;;;3.95;1.17;;;;;;;25.40;31.51;101425.25;146702;573;46020;-66
2021/06/02 08:57:10;;;;;;;1.55;1.10;;;;;;;25.48;30.82;101429.03;146702;599;47010;-65
2021/06/02 08:59:41;;;;;;;1.62;1.23;;;;;;;25.65;30.99;101437.56;146708;597;46008;-67
2021/06/02 09:02:11;;;;;;;2.62;1.20;;;;;;;25.75;31.19;101435.84;146702;610;46016;-67
2021/06/02 09:04:42;;;;;;;2.67;1.62;;;;;;;25.90;30.96;101427.50;146706;604;46020;-65
2021/06/02 09:07:15;;;;;;;3.65;1.50;;;;;;;25.87;30.86;101427.75;146704;604;46903;-65
2021/06/02 09:09:45;;;;;;;;;;;;;;;25.94;29.87;101426.25;146714;978;46020;-65
2021/06/02 09:12:16;;;;;;;2.53;1.65;;;;;;;26.01;30.61;101424.75;146710;580;47012;-67
2021/06/02 09:14:46;;;;;;;4.20;1.90;;;;;;;25.74;31.31;101414.44;146705;628;46010;-64
2021/06/02 09:17:17;;;;;;;4.15;1.67;;;;;;;25.64;31.63;101428.66;146705;566;46012;-65
2021/06/02 09:19:49;;;;;;;3.87;1.83;;;;;;;25.43;32.18;101427.69;146708;595;46010;-65
2021/06/02 09:22:21;;;;;;;4.87;2.00;;;;;;;25.39;32.90;101429.75;146705;579;46014;-65
2021/06/02 09:25:02;;;;;;;5.22;2.20;;;;;;;25.22;32.86;101424.81;146711;569;46010;-65
2021/06/02 09:27:49;;;;;;;3.70;2.15;;;;;;;24.76;34.68;101419.38;146709;590;47012;-68
2021/06/02 09:30:38;;;;;;;3.78;2.00;;;;;;;24.74;34.50;101415.09;146708;605;46018;-67
2021/06/02 09:33:09;;;;;;;2.78;1.87;;;;;;;24.79;33.79;101407.56;146703;582;47020;-69
2021/06/02 09:35:44;;;;;;;3.70;1.98;;;;;;;24.61;34.60;101412.50;146706;564;46021;-64
2021/06/02 09:38:25;;;;;;;3.40;2.08;;;;;;;24.50;35.25;101416.00;146707;583;47012;-70
2021/06/02 09:40:57;;;;;;;5.50;2.15;;;;;;;24.55;35.60;101410.25;146709;585;46010;-69
2021/06/02 09:43:32;;;;;;;3.97;1.98;;;;;;;24.62;34.75;101411.56;146707;703;46017;-69
2021/06/02 09:46:13;;;;;;;4.18;1.90;;;;;;;24.73;34.34;101408.91;146710;569;46010;-69
2021/06/02 09:49:01;;;;;;;2.90;1.90;;;;;;;24.61;35.04;101409.81;146709;620;45904;-70
2021/06/02 09:51:37;;;;;;;2.67;1.87;;;;;;;24.60;34.40;101414.31;146709;612;47010;-68
2021/06/02 09:54:09;;;;;;;2.33;1.60;;;;;;;24.58;33.18;101426.16;146706;594;46020;-70
2021/06/02 09:56:44;;;;;;;3.92;2.00;;;;;;;24.44;34.26;101416.44;146709;587;46020;-71
2021/06/02 09:59:15;;;;;;;3.33;1.80;;;;;;;24.57;33.93;101414.53;146707;570;46017;-71
2021/06/02 10:01:56;;;;;;;4.15;1.62;;;;;;;24.46;33.79;101411.81;146709;585;46020;-72
2021/06/02 10:04:39;;;;;;;6.50;1.90;;;;;;;24.43;33.58;101406.69;146704;569;46015;-70
2021/06/02 10:07:22;;;;;;;3.37;1.70;;;;;;;24.32;34.01;101404.84;146710;586;46020;-71
2021/06/02 10:09:53;;;;;;;2.85;1.60;;;;;;;24.18;34.14;101408.56;146708;565;46022;-71
2021/06/02 10:12:24;;;;;;;4.12;1.98;;;;;;;24.00;35.06;101400.03;146705;616;46031;-72
2021/06/02 10:14:59;;;;;;;2.95;1.80;;;;;;;24.03;34.94;101399.81;146706;624;47021;-72
2021/06/02 10:17:35;;;;;;;3.00;1.87;;;;;;;24.18;34.85;101405.88;146709;563;46020;-72
2021/06/02 10:20:13;;;;;;;3.42;1.95;;;;;;;24.46;33.75;101406.47;146705;590;46014;-72
2021/06/02 10:22:55;;;;;;;5.07;1.85;;;;;;;24.55;33.05;101404.88;146711;585;47012;-71
2021/06/02 10:25:28;;;;;;;2.70;1.70;;;;;;;24.52;33.58;101399.75;146707;579;46016;-71
2021/06/02 10:27:59;;;;;;;2.90;1.80;;;;;;;24.58;33.44;101399.31;146708;587;46021;-70
2021/06/02 10:30:30;;;;;;;3.25;1.65;;;;;;;24.53;33.88;101406.84;146706;563;47020;-70
2021/06/02 10:33:00;;;;;;;4.10;1.55;;;;;;;24.60;34.47;101411.62;146712;633;46010;-70
2021/06/02 10:35:31;;;;;;;4.10;1.52;;;;;;;24.65;34.40;101412.16;146707;598;47013;-70
2021/06/02 10:38:02;;;;;;;3.90;1.80;;;;;;;24.69;34.54;101420.84;146704;645;46020;-70
2021/06/02 10:40:36;;;;;;;2.45;1.55;;;;;;;24.70;33.04;101409.13;146709;576;46014;-70
2021/06/02 10:43:13;;;;;;;4.57;1.40;;;;;;;24.79;32.93;101408.41;146709;602;47010;-70
2021/06/02 10:46:13;;;;;;;4.37;1.70;;;;;;;24.95;32.93;101393.81;146705;634;46016;-70
2021/06/02 10:49:04;;;;;;;2.35;1.55;;;;;;;24.76;32.72;101402.44;146712;591;45020;-70
2021/06/02 10:51:45;;;;;;;4.10;1.50;;;;;;;24.81;33.35;101402.94;146707;569;46014;-70
2021/06/02 10:54:20;;;;;;;2.20;1.50;;;;;;;24.70;34.13;101409.13;146709;595;46020;-69
2021/06/02 10:57:16;;;;;;;2.55;1.35;;;;;;;24.59;34.30;101406.37;146707;583;47012;-70
2021/06/02 10:59:47;;;;;;;2.67;1.40;;;;;;;24.46;34.34;101403.78;146711;583;47010;-70
2021/06/02 11:02:28;;;;;;;2.50;1.42;;;;;;;24.59;34.82;101406.37;146703;563;47018;-70
2021/06/02 11:05:19;;;;;;;4.07;1.48;;;;;;;24.82;33.48;101401.94;146708;594;46021;-70
2021/06/02 11:07:52;;;;;;;1.80;1.23;;;;;;;24.75;33.99;101412.28;146708;579;46014;-70
2021/06/02 11:10:32;;;;;;;3.05;1.50;;;;;;;24.66;34.67;101402.28;146712;592;45022;-69
2021/06/02 11:13:05;;;;;;;2.87;1.40;;;;;;;24.81;34.24;101409.16;146709;592;47020;-69
2021/06/02 11:15:46;;;;;;;2.00;1.30;;;;;;;24.91;33.78;101401.22;146707;577;47010;-67
2021/06/02 11:18:22;;;;;;;2.90;1.25;;;;;;;24.71;34.13;101401.94;146706;594;46016;-68
2021/06/02 11:21:00;;;;;;;4.00;1.30;;;;;;;24.73;33.94;101398.16;146713;643;46018;-69
2021/06/02 11:23:38;;;;;;;2.62;1.50;;;;;;;24.72;33.72;101403.66;146705;573;46012;-68
2021/06/02 11:26:27;;;;;;;3.67;1.60;;;;;;;24.62;33.21;101395.44;146708;563;46022;-70
2021/06/02 11:28:57;;;;;;;3.37;1.42;;;;;;;24.55;33.66;101395.03;146594;669;62612;-66
2021/06/02 11:31:31;;;;;;;2.37;1.58;;;;;;;24.37;33.53;101389.22;146706;570;46020;-67
2021/06/02 11:34:30;;;;;;;2.30;1.50;;;;;;;24.28;32.54;101387.25;146708;629;46017;-67
2021/06/02 11:37:20;;;;;;;2.92;1.60;;;;;;;24.31;32.85;101382.50;146709;619;46008;-68
2021/06/02 11:39:56;;;;;;;2.30;1.50;;;;;;;24.38;33.53;101382.87;146702;572;47903;-70
2021/06/02 11:42:37;;;;;;;3.47;1.45;;;;;;;24.56;33.42;101385.97;146712;604;46021;-69
2021/06/02 11:45:21;;;;;;;3.28;1.60;;;;;;;24.42;32.95;101376.31;146705;576;46016;-69
2021/06/02 11:47:56;;;;;;;2.60;1.60;;;;;;;24.49;33.19;101374.00;146638;577;61312;-70
2021/06/02 11:50:27;;;;;;;2.72;1.42;;;;;;;24.79;32.50;101375.34;146707;564;46021;-69
2021/06/02 11:53:02;;;;;;;3.00;1.60;;;;;;;24.64;32.85;101378.22;146711;636;46012;-68
2021/06/02 11:55:43;;;;;;;2.10;1.50;;;;;;;24.80;32.25;101383.28;146704;594;46016;-69
2021/06/02 11:58:14;;;;;;;2.37;1.20;;;;;;;24.75;31.92;101381.91;146708;578;46020;-69
2021/06/02 12:00:47;;;;;;;3.78;1.40;;;;;;;24.69;32.40;101379.69;146708;575;46012;-68
2021/06/02 12:03:17;;;;;;;3.30;1.50;;;;;;;24.69;31.51;101380.56;146710;714;45020;-69
2021/06/02 12:05:49;;;;;;;2.25;1.30;;;;;;;24.62;31.18;101388.25;146704;577;46016;-69
2021/06/02 12:08:20;;;;;;;4.53;1.50;;;;;;;24.53;31.32;101382.69;146710;599;46010;-69
2021/06/02 12:10:57;;;;;;;2.70;1.50;;;;;;;24.34;32.18;101381.41;146705;565;46012;-66
2021/06/02 12:13:37;;;;;;;3.95;1.42;;;;;;;24.38;31.94;101380.19;146708;645;46021;-66
2021/06/02 12:16:10;;;;;;;4.37;1.40;;;;;;;24.31;31.98;101385.16;146705;671;46016;-66
2021/06/02 12:18:49;;;;;;;3.23;1.33;;;;;;;24.11;32.29;101383.13;146710;639;46020;-66
2021/06/02 12:21:27;;;;;;;3.60;1.45;;;;;;;24.12;32.67;101374.97;146706;600;46014;-66
2021/06/02 12:24:08;;;;;;;2.83;1.30;;;;;;;24.11;33.06;101370.59;146703;579;46020;-66
2021/06/02 12:26:46;;;;;;;3.22;1.50;;;;;;;24.19;33.18;101377.22;146710;586;46015;-66
2021/06/02 12:29:18;;;;;;;2.25;1.55;;;;;;;24.27;32.73;101372.97;146708;615;46010;-65
2021/06/02 12:31:54;;;;;;;3.05;1.45;;;;;;;24.35;32.25;101372.37;146711;636;45037;-66
2021/06/02 12:34:31;;;;;;;6.32;1.70;;;;;;;24.40;32.00;101367.53;146711;564;46021;-69
2021/06/02 12:37:07;;;;;;;3.67;1.70;;;;;;;24.42;31.85;101373.63;146708;630;46012;-68
2021/06/02 12:39:39;;;;;;;4.95;1.50;;;;;;;24.35;32.28;101367.03;146705;563;46020;-69
2021/06/02 12:42:12;;;;;;;3.58;1.42;;;;;;;24.33;32.31;101359.09;146708;623;46014;-69
2021/06/02 12:44:42;;;;;;;;;;;;;;;24.39;32.50;101359.59;146713;980;46020;-69
2021/06/02 12:47:17;;;;;;;2.95;1.60;;;;;;;24.41;33.23;101360.31;146661;579;49585;-69
2021/06/02 12:49:51;;;;;;;2.60;1.58;;;;;;;24.33;34.31;101343.00;146709;569;46008;-69
2021/06/02 12:52:23;;;;;;;2.40;1.42;;;;;;;24.36;34.69;101349.09;146705;590;46016;-69
2021/06/02 12:54:55;;;;;;;2.55;1.75;;;;;;;24.34;33.98;101346.53;146711;584;46008;-69
2021/06/02 12:57:29;;;;;;;2.25;1.45;;;;;;;24.30;34.51;101345.03;146706;611;46017;-68
2021/06/02 12:59:59;;;;;;;3.30;1.60;;;;;;;24.42;33.54;101341.41;146705;566;46020;-68
2021/06/02 13:02:33;;;;;;;2.33;1.73;;;;;;;24.43;33.80;101337.78;146705;604;47010;-69